Time;durP1;ratioP1;P1;durP2;ratioP2;P2;SDS_P1;SDS_P2;PMS_P1;PMS_P2;Temp;Humidity;BMP_temperature;BMP_pressure;BME280_temperature;BME280_humidity;BME280_pressure;Samples;Min_cycle;Max_cycle;Signal;HPM_P1;HPM_P2
2021/10/28 00:16:13;;;;;;;1.33;1.13;;;18.00;68.40;;;;;;10412760;28;20194;-64
2021/10/28 00:21:38;;;;;;;2.50;1.60;;;18.00;68.50;;;;;;10411296;28;20233;-65
2021/10/28 00:27:00;;;;;;;3.60;1.70;;;18.00;68.60;;;;;;10413787;28;20661;-64
2021/10/28 00:32:22;;;;;;;2.40;1.57;;;18.00;68.30;;;;;;10410888;28;20691;-65
2021/10/28 00:37:46;;;;;;;1.53;1.30;;;18.00;67.90;;;;;;10412720;28;20685;-64
2021/10/28 00:43:08;;;;;;;2.83;1.80;;;18.00;67.80;;;;;;10411294;28;20217;-64
2021/10/28 00:48:31;;;;;;;1.97;1.43;;;18.00;67.90;;;;;;10411758;28;20218;-64
2021/10/28 00:53:56;;;;;;;1.50;1.20;;;18.00;68.10;;;;;;10411397;28;20196;-64
2021/10/28 00:59:19;;;;;;;2.60;1.70;;;17.90;68.10;;;;;;10410903;28;20209;-64
2021/10/28 01:04:41;;;;;;;2.93;1.60;;;17.90;68.20;;;;;;10411651;28;20271;-64
2021/10/28 01:10:07;;;;;;;2.10;1.53;;;17.90;68.20;;;;;;10411085;28;20217;-64
2021/10/28 01:15:29;;;;;;;1.53;1.40;;;17.80;68.10;;;;;;10412111;28;20205;-64
2021/10/28 01:20:55;;;;;;;2.27;1.50;;;17.80;68.10;;;;;;10410405;28;20710;-64
2021/10/28 01:26:18;;;;;;;3.43;1.87;;;17.80;68.00;;;;;;10410443;28;20213;-64
2021/10/28 01:31:40;;;;;;;2.03;1.73;;;17.90;67.50;;;;;;10409561;28;20210;-64
2021/10/28 01:37:04;;;;;;;2.17;1.57;;;17.90;67.30;;;;;;10409455;28;20221;-64
2021/10/28 01:42:27;;;;;;;2.03;1.47;;;17.90;67.30;;;;;;10409371;28;20599;-64
2021/10/28 01:47:49;;;;;;;1.60;1.50;;;17.90;67.30;;;;;;10409846;28;20707;-64
2021/10/28 01:53:13;;;;;;;2.17;1.77;;;17.90;67.30;;;;;;10409493;28;20260;-64
2021/10/28 01:58:36;;;;;;;2.80;1.63;;;17.80;67.30;;;;;;10409033;28;20224;-64
2021/10/28 02:03:58;;;;;;;3.17;1.97;;;17.80;67.30;;;;;;10409818;28;20222;-64
2021/10/28 02:09:22;;;;;;;2.00;1.50;;;17.90;66.80;;;;;;10409384;28;20564;-64
2021/10/28 02:14:44;;;;;;;2.23;1.40;;;17.90;66.50;;;;;;10408950;28;20201;-64
2021/10/28 02:20:08;;;;;;;1.60;1.50;;;17.90;66.60;;;;;;10409766;28;20214;-64
2021/10/28 02:25:32;;;;;;;2.67;1.80;;;17.80;66.60;;;;;;10409973;28;20249;-65
2021/10/28 02:30:54;;;;;;;2.47;2.00;;;17.80;66.60;;;;;;10409452;28;20224;-64
2021/10/28 02:36:17;;;;;;;2.93;1.67;;;17.80;66.60;;;;;;10409287;28;20217;-64
2021/10/28 02:41:42;;;;;;;2.40;1.57;;;17.80;66.80;;;;;;10408142;28;20607;-64
2021/10/28 02:47:05;;;;;;;2.30;1.60;;;17.80;66.40;;;;;;10409012;28;20212;-64
2021/10/28 02:52:27;;;;;;;2.00;1.30;;;17.80;66.40;;;;;;10407881;28;20217;-64
2021/10/28 02:57:51;;;;;;;1.50;1.20;;;17.80;66.30;;;;;;10414801;28;20209;-64
2021/10/28 03:03:13;;;;;;;2.00;1.40;;;17.80;66.20;;;;;;10416640;28;20217;-64
2021/10/28 03:08:35;;;;;;;1.60;1.20;;;17.80;66.20;;;;;;10416326;28;20428;-64
2021/10/28 03:13:58;;;;;;;1.40;1.20;;;17.80;66.20;;;;;;10415135;28;20206;-64
2021/10/28 03:19:36;;;;;;;2.70;1.57;;;17.70;66.20;;;;;;10414989;28;20607;-65
2021/10/28 03:30:40;;;;;;;1.90;1.50;;;17.80;65.80;;;;;;10414219;28;20213;-64
2021/10/28 03:36:03;;;;;;;1.83;1.57;;;17.80;66.00;;;;;;10414147;28;20560;-64
2021/10/28 03:58:53;;;;;;;2.13;1.17;;;18.00;65.10;;;;;;10412493;28;20240;-64
2021/10/28 04:32:43;;;;;;;2.97;1.63;;;18.20;62.20;;;;;;10398563;28;20580;-64
2021/10/28 04:38:07;;;;;;;3.00;1.53;;;18.20;62.10;;;;;;10402934;28;20677;-65
2021/10/28 04:43:29;;;;;;;2.80;1.73;;;18.20;62.00;;;;;;10413148;28;20709;-65
2021/10/28 04:48:51;;;;;;;1.77;1.50;;;18.20;61.40;;;;;;10413959;28;20206;-65
2021/10/28 04:54:15;;;;;;;2.73;1.77;;;18.20;61.80;;;;;;10393086;28;20231;-65
2021/10/28 04:59:37;;;;;;;1.90;1.70;;;18.30;61.40;;;;;;10372114;28;20194;-64
2021/10/28 05:04:59;;;;;;;2.97;1.73;;;18.20;61.20;;;;;;10382154;28;20218;-64
2021/10/28 05:10:23;;;;;;;2.67;2.10;;;18.20;61.20;;;;;;10411515;28;20216;-64
2021/10/28 05:15:45;;;;;;;5.20;1.90;;;18.20;60.70;;;;;;10412336;28;20222;-65
2021/10/28 05:21:07;;;;;;;2.10;1.60;;;18.30;60.90;;;;;;10411021;28;20679;-65
2021/10/28 05:26:31;;;;;;;2.60;2.10;;;18.20;61.50;;;;;;10372438;28;20234;-65
2021/10/28 05:31:53;;;;;;;2.20;1.90;;;18.20;60.40;;;;;;10370166;28;20206;-65
2021/10/28 05:37:16;;;;;;;2.57;2.10;;;18.20;60.40;;;;;;10370915;28;20215;-65
2021/10/28 05:42:43;;;;;;;3.60;1.83;;;18.30;60.80;;;;;;10369854;28;20218;-64
2021/10/28 05:48:06;;;;;;;3.40;2.00;;;18.30;60.40;;;;;;10370709;28;20201;-65
2021/10/28 05:53:28;;;;;;;2.97;2.50;;;18.30;60.10;;;;;;10370328;28;20586;-65
2021/10/28 05:58:52;;;;;;;5.00;2.50;;;18.30;59.90;;;;;;10370072;28;20194;-65
2021/10/28 06:04:14;;;;;;;2.73;2.07;;;18.20;59.80;;;;;;10373454;28;20221;-65
2021/10/28 06:09:36;;;;;;;3.00;2.70;;;18.20;59.90;;;;;;10401605;28;20205;-65
2021/10/28 06:15:00;;;;;;;2.50;2.30;;;18.30;59.80;;;;;;10397352;28;20232;-65
2021/10/28 06:20:22;;;;;;;2.67;2.47;;;18.20;59.80;;;;;;10407733;28;20197;-65
2021/10/28 06:25:44;;;;;;;4.23;2.40;;;18.30;59.80;;;;;;10366759;28;20222;-68
2021/10/28 06:31:08;;;;;;;3.67;2.70;;;18.20;59.80;;;;;;10367227;28;20203;-67
2021/10/28 06:36:35;;;;;;;4.43;2.60;;;18.20;59.80;;;;;;10366884;28;20585;-68
2021/10/28 06:41:57;;;;;;;2.80;2.57;;;18.20;59.80;;;;;;10360574;28;20201;-67
2021/10/28 06:47:21;;;;;;;4.57;2.27;;;18.20;60.90;;;;;;10375440;28;20190;-66
2021/10/28 06:52:52;;;;;;;3.97;2.50;;;18.20;61.60;;;;;;10376227;28;20210;-67
2021/10/28 07:04:09;;;;;;;3.00;2.53;;;18.20;61.80;;;;;;10257587;28;20246;-67
2021/10/28 07:09:33;;;;;;;4.73;2.83;;;18.20;62.00;;;;;;10377901;28;20201;-65
2021/10/28 07:15:00;;;;;;;4.57;3.10;;;18.30;62.20;;;;;;10365678;28;20705;-69
2021/10/28 07:20:45;;;;;;;3.37;3.03;;;18.30;61.10;;;;;;10387008;28;20200;-69
2021/10/28 07:26:27;;;;;;;4.37;3.40;;;18.30;60.50;;;;;;10376328;28;20226;-69
2021/10/28 07:32:18;;;;;;;3.67;2.50;;;18.30;61.00;;;;;;10372509;28;20636;-69
2021/10/28 08:13:27;;;;;;;3.73;2.20;;;18.30;63.70;;;;;;10359681;28;20238;-62
2021/10/28 08:23:44;;;;;;;1.60;1.50;;;18.30;64.60;;;;;;10357120;28;20214;-64
2021/10/28 08:29:20;;;;;;;3.07;1.60;;;18.30;65.60;;;;;;10372626;28;20241;-64
2021/10/28 08:34:42;;;;;;;3.07;1.63;;;18.30;65.90;;;;;;10372877;28;20344;-63
2021/10/28 08:40:07;;;;;;;5.67;1.87;;;18.30;65.80;;;;;;10358814;28;20201;-64
2021/10/28 08:45:35;;;;;;;2.30;1.80;;;18.30;66.00;;;;;;10371145;28;20485;-63
2021/10/28 08:51:05;;;;;;;2.87;2.13;;;18.60;65.50;;;;;;10368862;28;20198;-63
2021/10/28 08:56:58;;;;;;;4.30;2.20;;;18.60;65.80;;;;;;10370620;28;20956;-64
2021/10/28 09:19:45;;;;;;;6.77;4.03;;;18.80;64.70;;;;;;10357572;28;20198;-65
2021/10/28 09:25:10;;;;;;;6.00;3.60;;;18.60;64.50;;;;;;10366724;28;20939;-66
2021/10/28 09:30:40;;;;;;;6.47;2.93;;;18.50;65.00;;;;;;10370492;28;20198;-66
2021/10/28 09:43:32;;;;;;;6.83;3.13;;;18.50;65.30;;;;;;10363681;28;20590;-66
2021/10/28 09:47:46;;;;;;;3.63;2.37;;;18.50;65.80;;;;;;10370257;28;20214;-67
2021/10/28 09:53:14;;;;;;;3.80;2.33;;;18.50;65.90;;;;;;10368249;28;20210;-66
2021/10/28 09:58:36;;;;;;;4.43;2.40;;;18.50;66.00;;;;;;10368921;28;20272;-66
2021/10/28 10:04:00;;;;;;;4.73;2.20;;;18.50;66.10;;;;;;10359675;28;20227;-67
2021/10/28 10:09:25;;;;;;;3.10;2.10;;;18.50;66.20;;;;;;10369984;28;20200;-66
2021/10/28 10:14:48;;;;;;;3.90;2.25;;;18.50;66.20;;;;;;10392961;23;20225;-67
2021/10/28 10:20:12;;;;;;;4.10;2.47;;;18.50;66.30;;;;;;10337835;28;20206;-67
2021/10/28 10:25:48;;;;;;;3.23;2.10;;;18.50;66.50;;;;;;10321517;28;20227;-67
2021/10/28 11:06:05;;;;;;;3.97;1.83;;;18.50;67.00;;;;;;10291743;28;20262;-67
2021/10/28 11:24:16;;;;;;;3.30;1.60;;;18.50;67.00;;;;;;10300610;28;20223;-67
2021/10/28 11:30:12;;;;;;;3.87;1.40;;;18.50;67.00;;;;;;10292370;28;20207;-65
2021/10/28 12:22:21;;;;;;;3.10;1.17;;;18.50;68.30;;;;;;10203158;28;20679;-66
2021/10/28 12:28:15;;;;;;;2.07;1.40;;;18.50;68.20;;;;;;10293211;28;20573;-67
2021/10/28 12:45:05;;;;;;;1.97;1.13;;;18.40;68.40;;;;;;10291102;28;20230;-67
2021/10/28 13:02:23;;;;;;;1.07;0.80;;;18.50;68.70;;;;;;10270537;28;20203;-67
2021/10/28 13:37:42;;;;;;;3.53;1.30;;;18.50;69.00;;;;;;10275845;28;20214;-68
2021/10/28 14:34:11;;;;;;;2.23;1.03;;;18.50;69.00;;;;;;10315735;28;20361;-69
2021/10/28 15:30:59;;;;;;;1.67;0.57;;;18.50;69.00;;;;;;10328192;28;20199;-67
2021/10/28 15:36:27;;;;;;;1.10;0.83;;;18.50;69.00;;;;;;10329215;28;20297;-69
2021/10/28 15:42:20;;;;;;;1.40;0.90;;;18.50;68.90;;;;;;10334953;28;20285;-67
2021/10/28 16:21:50;;;;;;;1.47;0.97;;;18.50;68.60;;;;;;10416945;28;21303;-63
2021/10/28 16:27:13;;;;;;;2.83;1.00;;;18.50;68.40;;;;;;10405920;28;20229;-64
2021/10/28 16:32:36;;;;;;;2.13;1.37;;;18.50;68.10;;;;;;10398973;28;20224;-62
2021/10/28 16:37:58;;;;;;;1.83;1.03;;;18.60;68.00;;;;;;10410820;28;20613;-62
2021/10/28 16:43:22;;;;;;;2.13;1.00;;;18.60;68.00;;;;;;10410702;28;20233;-63
2021/10/28 16:48:44;;;;;;;3.30;1.50;;;18.60;67.90;;;;;;10402514;28;20217;-65
2021/10/28 16:54:07;;;;;;;1.90;0.80;;;18.60;67.70;;;;;;10406892;28;20194;-65
2021/10/28 16:59:30;;;;;;;1.67;1.00;;;18.60;67.70;;;;;;10410134;28;20217;-64
2021/10/28 17:04:52;;;;;;;1.33;0.90;;;18.60;67.70;;;;;;10394310;28;20603;-63
2021/10/28 17:10:14;;;;;;;1.53;1.17;;;18.60;67.70;;;;;;10408538;28;20229;-65
2021/10/28 17:15:38;;;;;;;1.67;1.37;;;18.60;67.40;;;;;;10409012;28;20694;-63
2021/10/28 17:21:04;;;;;;;1.77;1.17;;;18.60;67.30;;;;;;10393490;28;20717;-63
2021/10/28 17:26:27;;;;;;;4.17;1.40;;;18.60;68.00;;;;;;10408404;28;20218;-64
2021/10/28 17:31:52;;;;;;;1.83;1.30;;;18.60;68.40;;;;;;10407135;28;20221;-64
2021/10/28 17:37:14;;;;;;;3.50;1.10;;;18.60;68.00;;;;;;10402959;28;20193;-65
2021/10/28 17:42:37;;;;;;;3.40;1.47;;;18.60;68.60;;;;;;10404232;28;20702;-66
2021/10/28 17:48:01;;;;;;;2.30;1.20;;;18.60;68.00;;;;;;10404653;28;20214;-66
2021/10/28 17:53:23;;;;;;;2.00;1.20;;;18.60;67.50;;;;;;10403927;28;20654;-66
2021/10/28 17:58:46;;;;;;;1.23;1.10;;;18.60;67.40;;;;;;10404101;28;20735;-65
2021/10/28 18:04:10;;;;;;;1.17;0.90;;;18.60;67.30;;;;;;10403121;28;20221;-65
2021/10/28 18:09:32;;;;;;;1.80;1.40;;;18.60;67.30;;;;;;10403844;28;20221;-64
2021/10/28 18:14:54;;;;;;;2.23;1.20;;;18.60;67.30;;;;;;10402738;28;20226;-65
2021/10/28 18:20:18;;;;;;;1.30;0.80;;;18.60;67.30;;;;;;10403070;28;20217;-65
2021/10/28 18:25:40;;;;;;;2.03;1.30;;;18.60;67.90;;;;;;10403146;28;20228;-64
2021/10/28 18:31:03;;;;;;;1.73;1.20;;;18.60;67.20;;;;;;10413160;28;20217;-64
2021/10/28 18:36:30;;;;;;;1.90;1.27;;;18.60;67.20;;;;;;10402107;28;20205;-64
2021/10/28 18:41:53;;;;;;;1.97;1.07;;;18.60;67.20;;;;;;10394962;28;20221;-64
2021/10/28 18:47:15;;;;;;;1.87;1.20;;;18.60;67.10;;;;;;10392881;28;20217;-65
2021/10/28 18:52:41;;;;;;;3.07;1.20;;;18.60;67.00;;;;;;10387629;28;20237;-65
2021/10/28 18:58:04;;;;;;;1.20;1.10;;;18.60;67.00;;;;;;10396586;28;20588;-65
2021/10/28 19:03:26;;;;;;;1.47;1.13;;;18.60;67.00;;;;;;10400059;28;20205;-65
2021/10/28 19:08:50;;;;;;;1.30;1.20;;;18.60;66.90;;;;;;10395254;28;20269;-65
2021/10/28 19:14:13;;;;;;;1.57;1.47;;;18.60;66.80;;;;;;10392288;28;20194;-65
2021/10/28 19:19:35;;;;;;;2.30;1.77;;;18.60;66.80;;;;;;10387633;28;20233;-64
2021/10/28 19:24:59;;;;;;;1.80;1.60;;;18.60;66.80;;;;;;10396467;28;20241;-64
2021/10/28 19:30:28;;;;;;;1.60;1.47;;;18.60;66.70;;;;;;10419865;28;20568;-64
2021/10/28 19:35:54;;;;;;;1.60;1.30;;;18.60;66.70;;;;;;10420478;28;20186;-64
2021/10/28 19:41:37;;;;;;;2.23;1.50;;;18.60;66.70;;;;;;10416103;28;20214;-64
2021/10/28 19:46:59;;;;;;;1.87;1.53;;;18.60;66.60;;;;;;10415835;28;20209;-64
2021/10/28 19:52:21;;;;;;;1.73;1.40;;;18.60;66.60;;;;;;10413813;28;20218;-64
2021/10/28 19:57:50;;;;;;;1.47;1.30;;;18.60;66.50;;;;;;10414857;28;20194;-64
2021/10/28 20:03:43;;;;;;;1.70;1.40;;;18.60;66.30;;;;;;10398717;28;20216;-64
2021/10/28 20:15:14;;;;;;;1.87;1.40;;;18.60;66.10;;;;;;10406600;28;20182;-64
2021/10/28 20:20:38;;;;;;;2.00;1.70;;;18.60;65.90;;;;;;10372585;28;20232;-64
2021/10/28 20:26:00;;;;;;;2.20;1.77;;;18.60;65.80;;;;;;10407598;28;20311;-64
2021/10/28 20:31:24;;;;;;;3.33;1.90;;;18.60;65.50;;;;;;10412122;28;20225;-64
2021/10/28 20:42:36;;;;;;;2.47;1.63;;;18.60;65.30;;;;;;10412452;28;20205;-64
2021/10/28 20:47:59;;;;;;;2.10;1.70;;;18.60;65.00;;;;;;10410894;28;20206;-64
2021/10/28 20:53:22;;;;;;;3.57;1.90;;;18.60;64.10;;;;;;10412610;28;20204;-65
2021/10/28 20:58:45;;;;;;;1.90;1.67;;;18.60;64.40;;;;;;10411834;28;20213;-64
2021/10/28 21:04:09;;;;;;;2.47;1.90;;;18.50;63.90;;;;;;10382060;28;20545;-64
2021/10/28 21:09:31;;;;;;;2.70;2.00;;;18.50;64.00;;;;;;10408199;28;20213;-64
2021/10/28 21:14:53;;;;;;;2.50;1.87;;;18.50;64.90;;;;;;10411849;28;20189;-64
2021/10/28 21:20:16;;;;;;;2.10;1.60;;;18.40;64.50;;;;;;10410618;28;20224;-64
2021/10/28 21:25:39;;;;;;;2.03;1.73;;;18.40;64.80;;;;;;10411242;28;20568;-64
2021/10/28 21:31:01;;;;;;;1.90;1.70;;;18.30;64.90;;;;;;10410126;28;20217;-64
2021/10/28 21:36:24;;;;;;;3.30;2.00;;;18.30;65.00;;;;;;10410629;28;20202;-64
2021/10/28 21:41:47;;;;;;;1.63;1.47;;;18.20;65.10;;;;;;10410756;28;20228;-64
2021/10/28 21:47:09;;;;;;;3.73;1.77;;;18.20;65.20;;;;;;10410150;28;20591;-64
2021/10/28 21:52:35;;;;;;;1.67;1.53;;;18.10;65.20;;;;;;10406201;28;20217;-64
2021/10/28 21:58:05;;;;;;;2.47;2.07;;;18.10;65.30;;;;;;10409416;28;20277;-64
2021/10/28 22:26:13;;;;;;;3.33;2.33;;;18.20;65.00;;;;;;10473898;28;20721;-61
2021/10/28 22:31:35;;;;;;;2.73;2.20;;;18.20;65.00;;;;;;10476540;28;20720;-60
2021/10/28 22:37:05;;;;;;;4.43;2.77;;;18.20;64.00;;;;;;10478028;28;20200;-61
2021/10/28 22:42:31;;;;;;;2.87;2.33;;;18.20;64.10;;;;;;10485276;28;20324;-62
2021/10/28 22:47:54;;;;;;;2.30;2.00;;;18.20;64.40;;;;;;10484496;28;20212;-60
2021/10/28 22:53:17;;;;;;;3.73;2.40;;;18.20;64.60;;;;;;10484208;28;20196;-62
2021/10/28 22:58:45;;;;;;;3.10;2.50;;;18.10;64.70;;;;;;10484842;28;20208;-62
2021/10/28 23:20:52;;;;;;;3.07;2.57;;;18.10;64.20;;;;;;10453933;28;20685;-61
2021/10/28 23:26:16;;;;;;;3.43;2.77;;;18.10;64.30;;;;;;10484961;28;20217;-61
2021/10/28 23:31:38;;;;;;;3.30;2.53;;;18.10;64.40;;;;;;10561767;28;20210;-62
2021/10/28 23:37:00;;;;;;;3.87;2.73;;;18.00;64.50;;;;;;10519663;28;20195;-62
2021/10/28 23:42:24;;;;;;;5.53;2.77;;;18.10;64.10;;;;;;10525762;28;20217;-62
2021/10/28 23:47:46;;;;;;;3.03;2.67;;;18.10;64.00;;;;;;10526079;28;20218;-61
2021/10/28 23:53:08;;;;;;;2.93;2.50;;;18.10;64.00;;;;;;10526241;28;20204;-62
2021/10/28 23:58:31;;;;;;;4.50;2.50;;;18.10;64.00;;;;;;10525652;28;20215;-62
